sensor_id;sensor_type;location;lat;lon;timestamp;temperature;humidity
32749;DHT22;19119;52.474;13.710;2024-01-30T00:01:04;0.00;99.90
32749;DHT22;19119;52.474;13.710;2024-01-30T00:03:30;-0.10;99.90
32749;DHT22;19119;52.474;13.710;2024-01-30T00:05:55;-0.10;99.90
32749;DHT22;19119;52.474;13.710;2024-01-30T00:08:21;-0.10;99.90
32749;DHT22;19119;52.474;13.710;2024-01-30T00:10:46;-0.10;99.90
32749;DHT22;19119;52.474;13.710;2024-01-30T00:13:11;-0.10;99.90
32749;DHT22;19119;52.474;13.710;2024-01-30T00:15:39;-0.20;99.90
32749;DHT22;19119;52.474;13.710;2024-01-30T00:18:04;-0.10;99.90
32749;DHT22;19119;52.474;13.710;2024-01-30T00:20:30;-0.10;99.90
32749;DHT22;19119;52.474;13.710;2024-01-30T00:22:55;0.00;99.90
32749;DHT22;19119;52.474;13.710;2024-01-30T00:25:21;0.10;99.90
32749;DHT22;19119;52.474;13.710;2024-01-30T00:27:46;0.10;99.90
32749;DHT22;19119;52.474;13.710;2024-01-30T00:30:12;0.10;99.90
32749;DHT22;19119;52.474;13.710;2024-01-30T00:32:37;0.20;99.90
32749;DHT22;19119;52.474;13.710;2024-01-30T00:35:03;0.10;99.90
32749;DHT22;19119;52.474;13.710;2024-01-30T00:37:29;0.20;99.90
32749;DHT22;19119;52.474;13.710;2024-01-30T00:39:54;0.20;99.90
32749;DHT22;19119;52.474;13.710;2024-01-30T00:42:19;0.20;99.90
32749;DHT22;19119;52.474;13.710;2024-01-30T00:44:45;0.30;99.90
32749;DHT22;19119;52.474;13.710;2024-01-30T00:47:10;0.20;99.90
32749;DHT22;19119;52.474;13.710;2024-01-30T00:49:36;0.30;99.90
32749;DHT22;19119;52.474;13.710;2024-01-30T00:52:02;0.20;99.90
32749;DHT22;19119;52.474;13.710;2024-01-30T00:54:27;0.30;99.90
32749;DHT22;19119;52.474;13.710;2024-01-30T00:56:52;0.30;99.90
32749;DHT22;19119;52.474;13.710;2024-01-30T00:59:18;0.30;99.90
32749;DHT22;19119;52.474;13.710;2024-01-30T01:01:43;0.30;99.90
32749;DHT22;19119;52.474;13.710;2024-01-30T01:04:09;0.30;99.90
32749;DHT22;19119;52.474;13.710;2024-01-30T01:06:34;0.40;99.90
32749;DHT22;19119;52.474;13.710;2024-01-30T01:09:00;0.40;99.90
32749;DHT22;19119;52.474;13.710;2024-01-30T01:11:25;0.30;99.90
32749;DHT22;19119;52.474;13.710;2024-01-30T01:13:51;0.30;99.90
32749;DHT22;19119;52.474;13.710;2024-01-30T01:16:16;0.30;99.90
32749;DHT22;19119;52.474;13.710;2024-01-30T01:18:42;0.30;99.90
32749;DHT22;19119;52.474;13.710;2024-01-30T01:21:07;0.30;99.90
32749;DHT22;19119;52.474;13.710;2024-01-30T01:23:33;0.30;99.90
32749;DHT22;19119;52.474;13.710;2024-01-30T01:25:58;0.30;99.90
32749;DHT22;19119;52.474;13.710;2024-01-30T01:28:25;0.30;99.90
32749;DHT22;19119;52.474;13.710;2024-01-30T01:30:50;0.30;99.90
32749;DHT22;19119;52.474;13.710;2024-01-30T01:33:16;0.30;99.90
32749;DHT22;19119;52.474;13.710;2024-01-30T01:35:42;0.30;99.90
32749;DHT22;19119;52.474;13.710;2024-01-30T01:38:08;0.40;99.90
32749;DHT22;19119;52.474;13.710;2024-01-30T01:40:33;0.30;99.90
32749;DHT22;19119;52.474;13.710;2024-01-30T01:43:02;0.20;99.90
32749;DHT22;19119;52.474;13.710;2024-01-30T01:45:28;0.30;99.90
32749;DHT22;19119;52.474;13.710;2024-01-30T01:47:54;0.20;99.90
32749;DHT22;19119;52.474;13.710;2024-01-30T01:50:21;0.30;99.90
32749;DHT22;19119;52.474;13.710;2024-01-30T01:52:50;0.30;99.90
32749;DHT22;19119;52.474;13.710;2024-01-30T01:55:16;0.30;99.90
32749;DHT22;19119;52.474;13.710;2024-01-30T01:57:44;0.20;99.90
32749;DHT22;19119;52.474;13.710;2024-01-30T02:00:10;0.20;99.90
32749;DHT22;19119;52.474;13.710;2024-01-30T02:02:37;0.20;99.90
32749;DHT22;19119;52.474;13.710;2024-01-30T02:05:04;0.20;99.90
32749;DHT22;19119;52.474;13.710;2024-01-30T02:07:30;0.30;99.90
32749;DHT22;19119;52.474;13.710;2024-01-30T02:09:55;0.30;99.90
32749;DHT22;19119;52.474;13.710;2024-01-30T02:12:21;0.30;99.90
32749;DHT22;19119;52.474;13.710;2024-01-30T02:14:50;0.30;99.90
32749;DHT22;19119;52.474;13.710;2024-01-30T02:17:16;0.30;99.90
32749;DHT22;19119;52.474;13.710;2024-01-30T02:19:42;0.30;99.90
32749;DHT22;19119;52.474;13.710;2024-01-30T02:22:08;0.20;99.90
32749;DHT22;19119;52.474;13.710;2024-01-30T02:24:33;0.30;99.90
32749;DHT22;19119;52.474;13.710;2024-01-30T02:26:59;0.30;99.90
32749;DHT22;19119;52.474;13.710;2024-01-30T02:29:24;0.20;99.90
32749;DHT22;19119;52.474;13.710;2024-01-30T02:31:50;0.30;99.90
32749;DHT22;19119;52.474;13.710;2024-01-30T02:34:16;0.30;99.90
32749;DHT22;19119;52.474;13.710;2024-01-30T02:36:44;0.20;99.90
32749;DHT22;19119;52.474;13.710;2024-01-30T02:39:10;0.20;99.90
32749;DHT22;19119;52.474;13.710;2024-01-30T02:41:36;0.30;99.90
32749;DHT22;19119;52.474;13.710;2024-01-30T02:44:02;0.20;99.90
32749;DHT22;19119;52.474;13.710;2024-01-30T02:46:28;0.20;99.90
32749;DHT22;19119;52.474;13.710;2024-01-30T02:48:53;0.40;99.90
32749;DHT22;19119;52.474;13.710;2024-01-30T02:51:19;0.40;99.90
32749;DHT22;19119;52.474;13.710;2024-01-30T02:53:44;0.40;99.90
32749;DHT22;19119;52.474;13.710;2024-01-30T02:56:10;0.50;99.90
32749;DHT22;19119;52.474;13.710;2024-01-30T02:58:36;0.40;99.90
32749;DHT22;19119;52.474;13.710;2024-01-30T03:01:02;0.20;99.90
32749;DHT22;19119;52.474;13.710;2024-01-30T03:03:27;0.30;99.90
32749;DHT22;19119;52.474;13.710;2024-01-30T03:05:53;0.30;99.90
32749;DHT22;19119;52.474;13.710;2024-01-30T03:08:19;0.30;99.90
32749;DHT22;19119;52.474;13.710;2024-01-30T03:10:44;0.30;99.90
32749;DHT22;19119;52.474;13.710;2024-01-30T03:13:10;0.40;99.90
32749;DHT22;19119;52.474;13.710;2024-01-30T03:15:35;0.30;99.90
32749;DHT22;19119;52.474;13.710;2024-01-30T03:18:02;-0.30;99.90
32749;DHT22;19119;52.474;13.710;2024-01-30T03:20:29;0.20;99.90
32749;DHT22;19119;52.474;13.710;2024-01-30T03:22:55;0.20;99.90
32749;DHT22;19119;52.474;13.710;2024-01-30T03:25:21;0.10;99.90
32749;DHT22;19119;52.474;13.710;2024-01-30T03:27:47;0.30;99.90
32749;DHT22;19119;52.474;13.710;2024-01-30T03:30:12;0.30;99.90
32749;DHT22;19119;52.474;13.710;2024-01-30T03:32:38;0.40;99.90
32749;DHT22;19119;52.474;13.710;2024-01-30T03:35:04;0.40;99.90
32749;DHT22;19119;52.474;13.710;2024-01-30T03:37:29;0.40;99.90
32749;DHT22;19119;52.474;13.710;2024-01-30T03:39:55;0.50;99.90
32749;DHT22;19119;52.474;13.710;2024-01-30T03:42:20;0.60;99.90
32749;DHT22;19119;52.474;13.710;2024-01-30T03:44:46;0.70;99.90
32749;DHT22;19119;52.474;13.710;2024-01-30T03:47:11;0.60;99.90
32749;DHT22;19119;52.474;13.710;2024-01-30T03:49:37;0.60;99.90
32749;DHT22;19119;52.474;13.710;2024-01-30T03:52:03;0.60;99.90
32749;DHT22;19119;52.474;13.710;2024-01-30T03:54:29;0.60;99.90
32749;DHT22;19119;52.474;13.710;2024-01-30T03:56:54;0.60;99.90
32749;DHT22;19119;52.474;13.710;2024-01-30T03:59:20;0.60;99.90
32749;DHT22;19119;52.474;13.710;2024-01-30T04:01:50;0.60;99.90
32749;DHT22;19119;52.474;13.710;2024-01-30T04:04:15;0.40;99.90
32749;DHT22;19119;52.474;13.710;2024-01-30T04:06:41;0.50;99.90
32749;DHT22;19119;52.474;13.710;2024-01-30T04:09:07;-0.20;99.90
32749;DHT22;19119;52.474;13.710;2024-01-30T04:11:32;0.50;99.90
32749;DHT22;19119;52.474;13.710;2024-01-30T04:13:58;0.40;99.90
32749;DHT22;19119;52.474;13.710;2024-01-30T04:16:23;0.40;99.90
32749;DHT22;19119;52.474;13.710;2024-01-30T04:18:49;0.40;99.90
32749;DHT22;19119;52.474;13.710;2024-01-30T04:21:14;0.20;99.90
32749;DHT22;19119;52.474;13.710;2024-01-30T04:23:41;0.40;99.90
32749;DHT22;19119;52.474;13.710;2024-01-30T04:26:06;0.20;99.90
32749;DHT22;19119;52.474;13.710;2024-01-30T04:28:32;0.40;99.90
32749;DHT22;19119;52.474;13.710;2024-01-30T04:30:57;0.30;99.90
32749;DHT22;19119;52.474;13.710;2024-01-30T04:33:23;0.30;99.90
32749;DHT22;19119;52.474;13.710;2024-01-30T04:35:48;0.10;99.90
32749;DHT22;19119;52.474;13.710;2024-01-30T04:38:14;0.20;99.90
32749;DHT22;19119;52.474;13.710;2024-01-30T04:40:40;0.50;99.90
32749;DHT22;19119;52.474;13.710;2024-01-30T04:43:05;0.00;99.90
32749;DHT22;19119;52.474;13.710;2024-01-30T04:45:31;0.10;99.90
32749;DHT22;19119;52.474;13.710;2024-01-30T04:47:56;0.10;99.90
32749;DHT22;19119;52.474;13.710;2024-01-30T04:50:23;0.00;99.90
32749;DHT22;19119;52.474;13.710;2024-01-30T04:52:48;0.10;99.90
32749;DHT22;19119;52.474;13.710;2024-01-30T04:55:14;0.00;99.90
32749;DHT22;19119;52.474;13.710;2024-01-30T04:57:39;0.00;99.90
32749;DHT22;19119;52.474;13.710;2024-01-30T05:00:06;0.00;99.90
32749;DHT22;19119;52.474;13.710;2024-01-30T05:02:31;0.00;99.90
32749;DHT22;19119;52.474;13.710;2024-01-30T05:05:00;0.00;99.90
32749;DHT22;19119;52.474;13.710;2024-01-30T05:07:25;0.50;99.90
32749;DHT22;19119;52.474;13.710;2024-01-30T05:09:51;0.00;99.90
32749;DHT22;19119;52.474;13.710;2024-01-30T05:12:17;-0.40;99.90
32749;DHT22;19119;52.474;13.710;2024-01-30T05:14:45;0.90;99.90
32749;DHT22;19119;52.474;13.710;2024-01-30T05:17:10;0.00;99.90
32749;DHT22;19119;52.474;13.710;2024-01-30T05:19:38;-0.60;99.90
32749;DHT22;19119;52.474;13.710;2024-01-30T05:22:04;-0.10;99.90
32749;DHT22;19119;52.474;13.710;2024-01-30T05:24:29;-0.10;99.90
32749;DHT22;19119;52.474;13.710;2024-01-30T05:26:55;0.50;99.90
32749;DHT22;19119;52.474;13.710;2024-01-30T05:29:20;-0.60;99.90
32749;DHT22;19119;52.474;13.710;2024-01-30T05:31:46;-0.20;99.90
32749;DHT22;19119;52.474;13.710;2024-01-30T05:34:11;-0.30;99.90
32749;DHT22;19119;52.474;13.710;2024-01-30T05:36:37;-0.30;99.90
32749;DHT22;19119;52.474;13.710;2024-01-30T05:39:02;-0.40;99.90
32749;DHT22;19119;52.474;13.710;2024-01-30T05:41:28;0.00;99.90
32749;DHT22;19119;52.474;13.710;2024-01-30T05:43:53;-0.20;99.90
32749;DHT22;19119;52.474;13.710;2024-01-30T05:46:19;-0.20;99.90
32749;DHT22;19119;52.474;13.710;2024-01-30T05:48:44;-0.20;99.90
32749;DHT22;19119;52.474;13.710;2024-01-30T05:51:10;-0.90;99.90
32749;DHT22;19119;52.474;13.710;2024-01-30T05:53:35;-0.30;99.90
32749;DHT22;19119;52.474;13.710;2024-01-30T05:56:02;-0.90;99.90
32749;DHT22;19119;52.474;13.710;2024-01-30T05:58:28;-0.20;99.90
32749;DHT22;19119;52.474;13.710;2024-01-30T06:00:53;0.00;99.90
32749;DHT22;19119;52.474;13.710;2024-01-30T06:03:19;-0.40;99.90
32749;DHT22;19119;52.474;13.710;2024-01-30T06:05:44;-0.80;99.90
32749;DHT22;19119;52.474;13.710;2024-01-30T06:08:10;0.20;99.90
32749;DHT22;19119;52.474;13.710;2024-01-30T06:10:35;-0.50;99.90
32749;DHT22;19119;52.474;13.710;2024-01-30T06:13:01;-0.20;99.90
32749;DHT22;19119;52.474;13.710;2024-01-30T06:15:27;-0.70;99.90
32749;DHT22;19119;52.474;13.710;2024-01-30T06:17:55;-0.40;99.90
32749;DHT22;19119;52.474;13.710;2024-01-30T06:20:20;-0.40;99.90
32749;DHT22;19119;52.474;13.710;2024-01-30T06:22:46;-1.00;99.90
32749;DHT22;19119;52.474;13.710;2024-01-30T06:25:11;-0.30;99.90
32749;DHT22;19119;52.474;13.710;2024-01-30T06:27:37;-0.30;99.90
32749;DHT22;19119;52.474;13.710;2024-01-30T06:30:04;-0.30;99.90
32749;DHT22;19119;52.474;13.710;2024-01-30T06:32:30;-0.30;99.90
32749;DHT22;19119;52.474;13.710;2024-01-30T06:35:00;-0.30;99.90
32749;DHT22;19119;52.474;13.710;2024-01-30T06:37:25;-0.30;99.90
32749;DHT22;19119;52.474;13.710;2024-01-30T06:39:51;0.00;99.90
32749;DHT22;19119;52.474;13.710;2024-01-30T06:42:18;-0.20;99.90
32749;DHT22;19119;52.474;13.710;2024-01-30T06:44:43;-0.20;99.90
32749;DHT22;19119;52.474;13.710;2024-01-30T06:47:09;-0.30;99.90
32749;DHT22;19119;52.474;13.710;2024-01-30T06:49:35;-0.20;99.90
32749;DHT22;19119;52.474;13.710;2024-01-30T06:52:05;-0.10;99.90
32749;DHT22;19119;52.474;13.710;2024-01-30T06:54:30;-0.20;99.90
32749;DHT22;19119;52.474;13.710;2024-01-30T06:56:56;-0.70;99.90
32749;DHT22;19119;52.474;13.710;2024-01-30T06:59:22;0.90;99.90
32749;DHT22;19119;52.474;13.710;2024-01-30T07:01:47;-0.50;99.90
32749;DHT22;19119;52.474;13.710;2024-01-30T07:04:13;0.70;99.90
32749;DHT22;19119;52.474;13.710;2024-01-30T07:06:39;0.00;99.90
32749;DHT22;19119;52.474;13.710;2024-01-30T07:09:04;-0.10;99.90
32749;DHT22;19119;52.474;13.710;2024-01-30T07:11:31;0.00;99.90
32749;DHT22;19119;52.474;13.710;2024-01-30T07:13:57;0.00;99.90
32749;DHT22;19119;52.474;13.710;2024-01-30T07:16:23;0.00;99.90
32749;DHT22;19119;52.474;13.710;2024-01-30T07:18:48;-0.20;99.90
32749;DHT22;19119;52.474;13.710;2024-01-30T07:21:14;0.20;99.90
32749;DHT22;19119;52.474;13.710;2024-01-30T07:23:41;0.10;99.90
32749;DHT22;19119;52.474;13.710;2024-01-30T07:26:08;-0.30;99.90
32749;DHT22;19119;52.474;13.710;2024-01-30T07:28:34;0.00;99.90
32749;DHT22;19119;52.474;13.710;2024-01-30T07:31:01;0.10;99.90
32749;DHT22;19119;52.474;13.710;2024-01-30T07:33:26;0.00;99.90
32749;DHT22;19119;52.474;13.710;2024-01-30T07:35:53;1.50;99.90
32749;DHT22;19119;52.474;13.710;2024-01-30T07:38:18;0.60;99.90
32749;DHT22;19119;52.474;13.710;2024-01-30T07:40:44;0.60;99.90
32749;DHT22;19119;52.474;13.710;2024-01-30T07:43:10;0.70;99.90
32749;DHT22;19119;52.474;13.710;2024-01-30T07:45:36;0.80;99.90
32749;DHT22;19119;52.474;13.710;2024-01-30T07:48:03;0.70;99.90
32749;DHT22;19119;52.474;13.710;2024-01-30T07:50:28;1.00;99.90
32749;DHT22;19119;52.474;13.710;2024-01-30T07:52:56;1.00;99.90
32749;DHT22;19119;52.474;13.710;2024-01-30T07:55:22;1.20;99.90
32749;DHT22;19119;52.474;13.710;2024-01-30T07:57:51;1.20;99.90
32749;DHT22;19119;52.474;13.710;2024-01-30T08:00:18;1.30;99.90
32749;DHT22;19119;52.474;13.710;2024-01-30T08:02:44;1.30;99.90
32749;DHT22;19119;52.474;13.710;2024-01-30T08:05:10;1.40;99.90
32749;DHT22;19119;52.474;13.710;2024-01-30T08:07:36;1.60;99.90
32749;DHT22;19119;52.474;13.710;2024-01-30T08:10:02;1.60;99.90
32749;DHT22;19119;52.474;13.710;2024-01-30T08:12:28;1.60;99.90
32749;DHT22;19119;52.474;13.710;2024-01-30T08:14:53;1.70;99.90
32749;DHT22;19119;52.474;13.710;2024-01-30T08:17:19;1.80;99.90
32749;DHT22;19119;52.474;13.710;2024-01-30T08:19:44;2.00;99.90
32749;DHT22;19119;52.474;13.710;2024-01-30T08:22:10;1.90;99.90
32749;DHT22;19119;52.474;13.710;2024-01-30T08:24:35;2.20;99.90
32749;DHT22;19119;52.474;13.710;2024-01-30T08:27:00;2.70;99.90
32749;DHT22;19119;52.474;13.710;2024-01-30T08:29:28;2.80;99.90
32749;DHT22;19119;52.474;13.710;2024-01-30T08:31:53;2.40;99.90
32749;DHT22;19119;52.474;13.710;2024-01-30T08:34:21;2.30;99.90
32749;DHT22;19119;52.474;13.710;2024-01-30T08:36:46;2.80;99.90
32749;DHT22;19119;52.474;13.710;2024-01-30T08:39:12;2.80;99.90
32749;DHT22;19119;52.474;13.710;2024-01-30T08:41:37;3.40;99.90
32749;DHT22;19119;52.474;13.710;2024-01-30T08:44:03;3.10;99.90
32749;DHT22;19119;52.474;13.710;2024-01-30T08:46:29;3.20;99.90
32749;DHT22;19119;52.474;13.710;2024-01-30T08:48:56;3.40;99.90
32749;DHT22;19119;52.474;13.710;2024-01-30T08:51:21;3.50;99.90
32749;DHT22;19119;52.474;13.710;2024-01-30T08:53:47;3.20;99.90
32749;DHT22;19119;52.474;13.710;2024-01-30T08:56:12;3.60;99.90
32749;DHT22;19119;52.474;13.710;2024-01-30T08:58:38;3.80;99.90
32749;DHT22;19119;52.474;13.710;2024-01-30T09:01:05;4.00;99.90
32749;DHT22;19119;52.474;13.710;2024-01-30T09:03:34;3.90;99.90
32749;DHT22;19119;52.474;13.710;2024-01-30T09:05:59;4.00;99.90
32749;DHT22;19119;52.474;13.710;2024-01-30T09:08:25;4.20;99.90
32749;DHT22;19119;52.474;13.710;2024-01-30T09:10:50;4.40;99.90
32749;DHT22;19119;52.474;13.710;2024-01-30T09:13:16;4.60;99.90
32749;DHT22;19119;52.474;13.710;2024-01-30T09:15:42;4.70;99.90
32749;DHT22;19119;52.474;13.710;2024-01-30T09:18:07;4.90;99.90
32749;DHT22;19119;52.474;13.710;2024-01-30T09:20:33;5.20;99.90
32749;DHT22;19119;52.474;13.710;2024-01-30T09:22:58;5.40;99.90
32749;DHT22;19119;52.474;13.710;2024-01-30T09:25:24;5.40;99.90
32749;DHT22;19119;52.474;13.710;2024-01-30T09:27:49;5.70;99.90
32749;DHT22;19119;52.474;13.710;2024-01-30T09:30:15;5.90;99.90
32749;DHT22;19119;52.474;13.710;2024-01-30T09:32:41;6.00;99.90
32749;DHT22;19119;52.474;13.710;2024-01-30T09:35:07;6.40;99.90
32749;DHT22;19119;52.474;13.710;2024-01-30T09:37:33;6.30;99.90
32749;DHT22;19119;52.474;13.710;2024-01-30T09:39:58;6.50;99.90
32749;DHT22;19119;52.474;13.710;2024-01-30T09:42:34;6.30;99.90
32749;DHT22;19119;52.474;13.710;2024-01-30T09:45:05;6.30;99.90
32749;DHT22;19119;52.474;13.710;2024-01-30T09:47:32;6.40;99.90
32749;DHT22;19119;52.474;13.710;2024-01-30T09:49:58;6.40;99.90
32749;DHT22;19119;52.474;13.710;2024-01-30T09:52:24;6.40;99.90
32749;DHT22;19119;52.474;13.710;2024-01-30T09:54:51;6.40;99.50
32749;DHT22;19119;52.474;13.710;2024-01-30T09:57:17;6.50;99.50
32749;DHT22;19119;52.474;13.710;2024-01-30T09:59:43;6.70;99.90
32749;DHT22;19119;52.474;13.710;2024-01-30T10:02:09;6.70;99.30
32749;DHT22;19119;52.474;13.710;2024-01-30T10:04:35;6.80;99.30
32749;DHT22;19119;52.474;13.710;2024-01-30T10:07:04;6.90;99.00
32749;DHT22;19119;52.474;13.710;2024-01-30T10:09:32;6.90;98.60
32749;DHT22;19119;52.474;13.710;2024-01-30T10:11:58;6.90;98.40
32749;DHT22;19119;52.474;13.710;2024-01-30T10:14:23;6.90;98.10
32749;DHT22;19119;52.474;13.710;2024-01-30T10:16:49;7.00;98.00
32749;DHT22;19119;52.474;13.710;2024-01-30T10:19:15;7.10;98.00
32749;DHT22;19119;52.474;13.710;2024-01-30T10:21:41;7.10;97.70
32749;DHT22;19119;52.474;13.710;2024-01-30T10:24:07;7.20;98.00
32749;DHT22;19119;52.474;13.710;2024-01-30T10:26:32;7.30;97.60
32749;DHT22;19119;52.474;13.710;2024-01-30T10:28:59;7.40;97.20
32749;DHT22;19119;52.474;13.710;2024-01-30T10:31:25;7.60;97.00
32749;DHT22;19119;52.474;13.710;2024-01-30T10:33:50;7.50;97.10
32749;DHT22;19119;52.474;13.710;2024-01-30T10:36:17;7.50;96.70
32749;DHT22;19119;52.474;13.710;2024-01-30T10:38:43;7.60;96.50
32749;DHT22;19119;52.474;13.710;2024-01-30T10:41:13;7.80;96.60
32749;DHT22;19119;52.474;13.710;2024-01-30T10:43:41;7.70;96.40
32749;DHT22;19119;52.474;13.710;2024-01-30T10:46:10;7.80;96.00
32749;DHT22;19119;52.474;13.710;2024-01-30T10:48:36;7.90;96.50
32749;DHT22;19119;52.474;13.710;2024-01-30T10:51:08;8.00;96.00
32749;DHT22;19119;52.474;13.710;2024-01-30T10:53:34;8.10;95.50
32749;DHT22;19119;52.474;13.710;2024-01-30T10:56:01;8.10;95.40
32749;DHT22;19119;52.474;13.710;2024-01-30T10:58:28;8.30;95.70
32749;DHT22;19119;52.474;13.710;2024-01-30T11:00:54;8.30;95.40
32749;DHT22;19119;52.474;13.710;2024-01-30T11:03:20;8.30;95.40
32749;DHT22;19119;52.474;13.710;2024-01-30T11:05:49;8.50;95.20
32749;DHT22;19119;52.474;13.710;2024-01-30T11:08:23;8.40;95.00
32749;DHT22;19119;52.474;13.710;2024-01-30T11:10:49;8.50;95.10
32749;DHT22;19119;52.474;13.710;2024-01-30T11:13:15;8.70;95.20
32749;DHT22;19119;52.474;13.710;2024-01-30T11:15:41;8.60;95.40
32749;DHT22;19119;52.474;13.710;2024-01-30T11:18:06;8.70;94.90
32749;DHT22;19119;52.474;13.710;2024-01-30T11:20:32;8.60;94.90
32749;DHT22;19119;52.474;13.710;2024-01-30T11:22:59;8.60;95.10
32749;DHT22;19119;52.474;13.710;2024-01-30T11:25:27;8.50;94.90
32749;DHT22;19119;52.474;13.710;2024-01-30T11:27:54;8.50;94.20
32749;DHT22;19119;52.474;13.710;2024-01-30T11:30:27;8.50;94.70
32749;DHT22;19119;52.474;13.710;2024-01-30T11:33:07;8.70;94.80
32749;DHT22;19119;52.474;13.710;2024-01-30T11:35:38;8.80;94.80
32749;DHT22;19119;52.474;13.710;2024-01-30T11:38:08;8.60;94.80
32749;DHT22;19119;52.474;13.710;2024-01-30T11:40:35;8.70;94.70
32749;DHT22;19119;52.474;13.710;2024-01-30T11:43:02;8.70;95.00
32749;DHT22;19119;52.474;13.710;2024-01-30T11:45:28;8.80;95.00
32749;DHT22;19119;52.474;13.710;2024-01-30T11:47:55;8.80;95.00
32749;DHT22;19119;52.474;13.710;2024-01-30T11:50:21;8.80;94.80
32749;DHT22;19119;52.474;13.710;2024-01-30T11:52:47;8.80;94.90
32749;DHT22;19119;52.474;13.710;2024-01-30T11:55:13;8.90;95.20
32749;DHT22;19119;52.474;13.710;2024-01-30T11:57:39;9.10;94.50
32749;DHT22;19119;52.474;13.710;2024-01-30T12:00:05;9.30;94.60
32749;DHT22;19119;52.474;13.710;2024-01-30T12:02:36;9.20;94.50
32749;DHT22;19119;52.474;13.710;2024-01-30T12:05:08;9.50;94.50
32749;DHT22;19119;52.474;13.710;2024-01-30T12:07:37;9.50;94.50
32749;DHT22;19119;52.474;13.710;2024-01-30T12:10:03;9.50;94.40
32749;DHT22;19119;52.474;13.710;2024-01-30T12:12:29;9.60;94.30
32749;DHT22;19119;52.474;13.710;2024-01-30T12:14:56;9.80;94.20
32749;DHT22;19119;52.474;13.710;2024-01-30T12:17:32;9.70;93.50
32749;DHT22;19119;52.474;13.710;2024-01-30T12:20:05;9.80;93.70
32749;DHT22;19119;52.474;13.710;2024-01-30T12:22:33;9.90;93.90
32749;DHT22;19119;52.474;13.710;2024-01-30T12:25:01;9.80;94.40
32749;DHT22;19119;52.474;13.710;2024-01-30T12:27:26;9.80;94.20
32749;DHT22;19119;52.474;13.710;2024-01-30T12:29:56;9.90;94.10
32749;DHT22;19119;52.474;13.710;2024-01-30T12:32:23;9.70;94.10
32749;DHT22;19119;52.474;13.710;2024-01-30T12:34:48;9.70;94.20
32749;DHT22;19119;52.474;13.710;2024-01-30T12:37:14;9.60;94.40
32749;DHT22;19119;52.474;13.710;2024-01-30T12:39:40;9.80;94.50
32749;DHT22;19119;52.474;13.710;2024-01-30T12:42:06;9.70;94.40
32749;DHT22;19119;52.474;13.710;2024-01-30T12:44:31;9.80;94.60
32749;DHT22;19119;52.474;13.710;2024-01-30T12:46:57;9.80;94.40
32749;DHT22;19119;52.474;13.710;2024-01-30T12:49:23;10.20;94.50
32749;DHT22;19119;52.474;13.710;2024-01-30T12:51:48;10.60;94.00
32749;DHT22;19119;52.474;13.710;2024-01-30T12:54:13;10.90;93.70
32749;DHT22;19119;52.474;13.710;2024-01-30T12:56:39;10.60;93.70
32749;DHT22;19119;52.474;13.710;2024-01-30T12:59:04;10.70;93.80
32749;DHT22;19119;52.474;13.710;2024-01-30T13:01:30;10.60;93.90
32749;DHT22;19119;52.474;13.710;2024-01-30T13:03:55;10.60;93.90
32749;DHT22;19119;52.474;13.710;2024-01-30T13:06:22;10.60;94.00
32749;DHT22;19119;52.474;13.710;2024-01-30T13:08:48;10.60;94.00
32749;DHT22;19119;52.474;13.710;2024-01-30T13:11:13;10.30;94.40
32749;DHT22;19119;52.474;13.710;2024-01-30T13:13:39;10.30;94.20
32749;DHT22;19119;52.474;13.710;2024-01-30T13:16:05;10.30;94.60
32749;DHT22;19119;52.474;13.710;2024-01-30T13:18:31;10.50;94.60
32749;DHT22;19119;52.474;13.710;2024-01-30T13:20:56;10.50;94.50
32749;DHT22;19119;52.474;13.710;2024-01-30T13:23:22;10.40;94.30
32749;DHT22;19119;52.474;13.710;2024-01-30T13:25:50;10.30;94.60
32749;DHT22;19119;52.474;13.710;2024-01-30T13:28:16;10.10;94.70
32749;DHT22;19119;52.474;13.710;2024-01-30T13:30:44;10.10;94.90
32749;DHT22;19119;52.474;13.710;2024-01-30T13:33:09;10.00;94.90
32749;DHT22;19119;52.474;13.710;2024-01-30T13:35:35;9.80;95.00
32749;DHT22;19119;52.474;13.710;2024-01-30T13:38:00;9.90;95.10
32749;DHT22;19119;52.474;13.710;2024-01-30T13:40:26;9.80;95.20
32749;DHT22;19119;52.474;13.710;2024-01-30T13:42:51;9.90;95.60
32749;DHT22;19119;52.474;13.710;2024-01-30T13:45:17;9.90;95.20
32749;DHT22;19119;52.474;13.710;2024-01-30T13:47:43;9.90;95.30
32749;DHT22;19119;52.474;13.710;2024-01-30T13:50:08;9.80;95.40
32749;DHT22;19119;52.474;13.710;2024-01-30T13:52:35;10.00;95.40
32749;DHT22;19119;52.474;13.710;2024-01-30T13:55:01;10.00;95.50
32749;DHT22;19119;52.474;13.710;2024-01-30T13:57:26;9.90;95.60
32749;DHT22;19119;52.474;13.710;2024-01-30T13:59:52;9.80;95.60
32749;DHT22;19119;52.474;13.710;2024-01-30T14:02:17;9.80;95.70
32749;DHT22;19119;52.474;13.710;2024-01-30T14:04:43;9.70;95.70
32749;DHT22;19119;52.474;13.710;2024-01-30T14:07:09;9.60;95.70
32749;DHT22;19119;52.474;13.710;2024-01-30T14:09:35;9.50;96.10
32749;DHT22;19119;52.474;13.710;2024-01-30T14:12:00;9.50;95.90
32749;DHT22;19119;52.474;13.710;2024-01-30T14:14:26;9.50;96.20
32749;DHT22;19119;52.474;13.710;2024-01-30T14:16:51;9.40;96.40
32749;DHT22;19119;52.474;13.710;2024-01-30T14:19:17;9.30;96.50
32749;DHT22;19119;52.474;13.710;2024-01-30T14:21:42;9.20;96.60
32749;DHT22;19119;52.474;13.710;2024-01-30T14:24:08;9.20;96.70
32749;DHT22;19119;52.474;13.710;2024-01-30T14:26:33;9.10;96.80
32749;DHT22;19119;52.474;13.710;2024-01-30T14:28:59;9.10;96.80
32749;DHT22;19119;52.474;13.710;2024-01-30T14:31:24;9.10;96.80
32749;DHT22;19119;52.474;13.710;2024-01-30T14:33:50;9.00;97.20
32749;DHT22;19119;52.474;13.710;2024-01-30T14:36:16;9.00;97.00
32749;DHT22;19119;52.474;13.710;2024-01-30T14:38:41;9.00;97.20
32749;DHT22;19119;52.474;13.710;2024-01-30T14:41:07;9.00;97.10
32749;DHT22;19119;52.474;13.710;2024-01-30T14:43:32;9.00;97.20
32749;DHT22;19119;52.474;13.710;2024-01-30T14:45:58;9.10;97.30
32749;DHT22;19119;52.474;13.710;2024-01-30T14:48:23;9.00;97.30
32749;DHT22;19119;52.474;13.710;2024-01-30T14:50:49;8.90;97.40
32749;DHT22;19119;52.474;13.710;2024-01-30T14:53:14;8.90;97.30
32749;DHT22;19119;52.474;13.710;2024-01-30T14:55:40;8.90;97.40
32749;DHT22;19119;52.474;13.710;2024-01-30T14:58:06;8.80;97.70
32749;DHT22;19119;52.474;13.710;2024-01-30T15:00:31;8.80;97.80
32749;DHT22;19119;52.474;13.710;2024-01-30T15:02:57;8.70;97.80
32749;DHT22;19119;52.474;13.710;2024-01-30T15:05:22;8.60;97.80
32749;DHT22;19119;52.474;13.710;2024-01-30T15:07:48;8.60;97.90
32749;DHT22;19119;52.474;13.710;2024-01-30T15:10:13;8.50;97.90
32749;DHT22;19119;52.474;13.710;2024-01-30T15:12:39;8.50;98.10
32749;DHT22;19119;52.474;13.710;2024-01-30T15:15:07;8.30;98.00
32749;DHT22;19119;52.474;13.710;2024-01-30T15:17:33;8.30;98.10
32749;DHT22;19119;52.474;13.710;2024-01-30T15:19:58;8.30;97.90